Time;durP1;ratioP1;P1;durP2;ratioP2;P2;SDS_P1;SDS_P2;PMS_P1;PMS_P2;Temp;Humidity;BMP_temperature;BMP_pressure;BME280_temperature;BME280_humidity;BME280_pressure;Samples;Min_cycle;Max_cycle;Signal;HPM_P1;HPM_P2
2023/07/06 00:00:14;;;;;;;11.03;6.17;;;;;;;-141.97;66.58;47315.34;5009266;28;20235;-85
2023/07/06 00:02:41;;;;;;;8.87;6.33;;;;;;;-141.97;66.52;47538.28;5013895;28;20186;-85
2023/07/06 00:05:07;;;;;;;7.83;6.40;;;;;;;-141.97;66.77;47459.50;5030142;28;20174;-85
2023/07/06 00:07:35;;;;;;;12.33;6.50;;;;;;;-141.97;66.57;47459.50;5012051;28;20274;-86
2023/07/06 00:10:01;;;;;;;12.90;7.13;;;;;;;-141.97;66.73;47344.19;5014367;28;20163;-85
2023/07/06 00:12:29;;;;;;;9.57;6.80;;;;;;;-141.97;66.41;47555.59;5011483;28;20185;-86
2023/07/06 00:14:54;;;;;;;7.97;6.47;;;;;;;-141.97;66.54;47371.09;5011783;28;20167;-86
2023/07/06 00:17:21;;;;;;;8.93;7.00;;;;;;;-141.97;66.77;47653.63;5012401;28;20689;-86
2023/07/06 00:19:47;;;;;;;8.50;6.63;;;;;;;-141.97;66.73;47613.25;5012005;28;20166;-86
2023/07/06 00:22:13;;;;;;;10.50;7.03;;;;;;;-141.97;66.46;47642.09;5010576;28;20186;-86
2023/07/06 00:24:41;;;;;;;10.17;7.23;;;;;;;-141.97;66.34;47672.84;5012118;28;20178;-86
2023/07/06 00:27:07;;;;;;;8.83;7.20;;;;;;;-141.97;66.23;47519.06;5012325;28;20162;-86
2023/07/06 00:29:38;;;;;;;13.00;7.13;;;;;;;-141.97;66.15;47319.19;5011768;28;20178;-88
2023/07/06 00:32:15;;;;;;;9.43;6.87;;;;;;;-141.97;66.04;47430.66;5005380;28;20186;-87
2023/07/06 00:34:43;;;;;;;10.63;6.87;;;;;;;-141.97;66.32;47595.97;5027399;28;20205;-87
2023/07/06 00:37:10;;;;;;;8.93;7.07;;;;;;;-141.97;66.74;47522.91;5012600;28;20226;-87
2023/07/06 00:39:36;;;;;;;10.00;7.00;;;;;;;-141.97;66.94;47426.81;5010323;28;20185;-87
2023/07/06 00:42:05;;;;;;;10.30;7.57;;;;;;;-141.97;66.89;47538.28;5011535;28;20368;-87
2023/07/06 00:44:47;;;;;;;9.37;7.17;;;;;;;-141.97;67.09;47570.97;5012169;28;20192;-87
2023/07/06 00:47:13;;;;;;;8.87;7.07;;;;;;;-141.97;67.12;47424.91;5011278;28;20562;-87
2023/07/06 00:49:40;;;;;;;11.40;7.27;;;;;;;-141.97;66.92;47311.50;5012604;28;20181;-87
2023/07/06 00:52:06;;;;;;;9.50;6.97;;;;;;;-141.97;66.96;47474.88;5013106;28;20167;-87
2023/07/06 00:54:40;;;;;;;9.30;7.63;;;;;;;-141.97;66.94;47349.94;5013555;28;20257;-87
2023/07/06 00:57:11;;;;;;;9.30;7.60;;;;;;;-141.97;66.71;47234.63;5011282;28;20210;-87
2023/07/06 00:59:40;;;;;;;9.77;7.03;;;;;;;-141.97;66.57;47565.22;5001474;28;20225;-88
2023/07/06 01:02:08;;;;;;;11.80;7.20;;;;;;;-141.97;66.03;47338.41;5012238;28;20175;-87
2023/07/06 01:04:34;;;;;;;8.70;6.40;;;;;;;-141.97;66.10;47776.63;5027885;28;20174;-89
2023/07/06 01:07:00;;;;;;;9.63;7.23;;;;;;;-141.97;65.74;47367.25;5010973;28;20619;-87
2023/07/06 01:09:29;;;;;;;9.33;7.20;;;;;;;-141.97;66.05;47367.25;5012628;28;20175;-88
2023/07/06 01:11:55;;;;;;;10.67;7.40;;;;;;;-141.97;66.25;47440.28;5011443;28;20292;-86
2023/07/06 01:14:21;;;;;;;9.07;6.70;;;;;;;-141.97;66.10;47403.75;5013049;28;20623;-88
2023/07/06 01:16:55;;;;;;;8.80;7.00;;;;;;;-141.97;65.82;47549.84;5011102;28;20206;-88
2023/07/06 01:19:38;;;;;;;10.60;7.93;;;;;;;-141.97;65.50;47546.00;5012894;28;20170;-87
2023/07/06 01:22:26;;;;;;;10.30;7.33;;;;;;;-141.97;65.52;47515.22;5012159;28;20185;-88
2023/07/06 01:25:11;;;;;;;10.40;7.43;;;;;;;-141.97;65.30;47465.25;5011567;28;20197;-89
2023/07/06 01:27:49;;;;;;;11.50;7.83;;;;;;;-141.97;65.05;47499.84;4994252;28;20234;-88
2023/07/06 01:30:27;;;;;;;11.03;7.73;;;;;;;-141.97;65.30;47519.06;5028990;28;20244;-86
2023/07/06 01:32:59;;;;;;;10.30;7.70;;;;;;;-141.97;65.94;47499.84;5025341;28;20182;-85
2023/07/06 01:35:38;;;;;;;11.13;7.53;;;;;;;-141.97;65.64;47519.06;5011417;28;20219;-86
2023/07/06 01:38:04;;;;;;;10.47;7.27;;;;;;;-141.97;65.38;47522.91;5012014;28;20670;-86
2023/07/06 01:40:30;;;;;;;12.33;8.33;;;;;;;-141.97;65.31;47480.63;5012351;28;20173;-87
2023/07/06 01:42:55;;;;;;;10.50;7.60;;;;;;;-141.97;65.05;47580.59;5027076;28;20690;-87
2023/07/06 01:45:24;;;;;;;8.90;7.13;;;;;;;-141.97;64.88;47669.00;5033359;28;20206;-87
2023/07/06 01:47:55;;;;;;;9.70;7.40;;;;;;;-141.97;65.76;47476.78;5012265;28;20171;-86
2023/07/06 01:50:28;;;;;;;10.67;7.03;;;;;;;-141.97;65.18;47496.00;5011217;28;20650;-86
2023/07/06 01:53:30;;;;;;;8.67;7.50;;;;;;;-141.97;64.80;47499.84;5014381;28;20170;-86
2023/07/06 01:56:07;;;;;;;10.07;6.90;;;;;;;-141.97;64.92;47490.25;5013560;28;20162;-86
2023/07/06 01:58:45;;;;;;;9.23;7.57;;;;;;;-141.97;64.88;47334.56;5015936;28;20181;-86
2023/07/06 02:01:20;;;;;;;9.47;7.10;;;;;;;-141.97;64.72;47624.78;5015098;28;20151;-88
2023/07/06 02:03:47;;;;;;;9.77;7.47;;;;;;;-141.97;64.51;47665.16;5015303;28;20173;-88
2023/07/06 02:06:13;;;;;;;9.13;7.43;;;;;;;-141.97;64.59;47751.66;5014641;28;20175;-90
2023/07/06 02:08:41;;;;;;;10.40;7.37;;;;;;;-141.97;64.60;47551.75;5016257;28;20666;-90
2023/07/06 02:11:10;;;;;;;12.37;8.00;;;;;;;-141.97;64.49;47509.47;5015921;28;20245;-91
2023/07/06 02:13:35;;;;;;;12.00;7.93;;;;;;;-141.97;64.45;47699.75;5014781;28;20158;-90
2023/07/06 02:16:04;;;;;;;10.37;7.77;;;;;;;-141.97;65.03;47709.38;5015821;28;20187;-90
2023/07/06 02:18:30;;;;;;;12.07;7.80;;;;;;;-141.97;66.02;47505.63;5023193;28;20177;-88
2023/07/06 02:20:57;;;;;;;10.93;7.90;;;;;;;-141.97;66.69;47557.53;5036359;28;20163;-88
2023/07/06 02:23:23;;;;;;;10.93;8.00;;;;;;;-141.97;67.44;47336.50;5034460;28;20308;-88
2023/07/06 02:25:49;;;;;;;10.87;8.10;;;;;;;-141.97;67.35;47505.63;5018200;28;20159;-86
2023/07/06 02:28:14;;;;;;;11.63;8.03;;;;;;;-141.97;67.58;47776.63;5015788;28;20202;-88
2023/07/06 02:30:40;;;;;;;10.20;7.80;;;;;;;-141.97;67.81;47738.19;5015773;28;20631;-88
2023/07/06 02:33:06;;;;;;;12.07;8.43;;;;;;;-141.97;67.66;47288.44;5015400;28;20181;-89
2023/07/06 02:35:32;;;;;;;11.00;8.40;;;;;;;-141.97;67.31;47595.97;5013448;28;20614;-89
2023/07/06 02:37:58;;;;;;;12.77;8.83;;;;;;;-141.97;67.41;47474.88;5017310;28;20241;-90
2023/07/06 02:40:23;;;;;;;11.17;7.97;;;;;;;-141.97;67.78;47574.81;5034163;28;20170;-89
2023/07/06 02:42:49;;;;;;;12.00;8.20;;;;;;;-141.97;67.91;47436.44;5033515;28;20653;-88
2023/07/06 02:45:14;;;;;;;13.10;8.73;;;;;;;-141.97;68.09;47597.88;5033253;28;20653;-86
2023/07/06 02:47:41;;;;;;;13.07;9.10;;;;;;;-141.97;68.33;47396.06;5033267;28;20631;-85
2023/07/06 02:50:10;;;;;;;13.40;9.20;;;;;;;-141.97;68.45;47496.00;5033525;28;20177;-85
2023/07/06 02:52:44;;;;;;;10.77;9.10;;;;;;;-141.97;68.09;47765.09;5033556;28;20697;-86
2023/07/06 02:55:09;;;;;;;13.43;8.93;;;;;;;-141.97;67.67;47534.44;5036264;28;20174;-86
2023/07/06 02:57:39;;;;;;;10.77;9.20;;;;;;;-141.97;67.82;47469.09;5035720;28;20265;-85
2023/07/06 03:00:10;;;;;;;12.17;8.70;;;;;;;-141.97;67.85;47576.75;5033203;28;20198;-86
2023/07/06 03:02:35;;;;;;;13.07;9.50;;;;;;;-141.97;67.68;47390.31;5032792;28;20193;-86
2023/07/06 03:05:03;;;;;;;11.90;9.30;;;;;;;-141.97;67.64;47722.81;5032467;28;20197;-87
2023/07/06 03:07:29;;;;;;;11.97;8.73;;;;;;;-141.97;67.24;47373.00;5032254;28;20336;-87
2023/07/06 03:09:54;;;;;;;12.83;9.20;;;;;;;-141.97;67.06;47707.44;5035605;28;20268;-86
2023/07/06 03:12:20;;;;;;;12.37;9.23;;;;;;;-141.97;67.08;47374.94;5034390;28;20167;-86
2023/07/06 03:14:46;;;;;;;14.07;9.27;;;;;;;-141.97;67.01;47496.00;5033482;28;20249;-87
2023/07/06 03:17:12;;;;;;;11.83;9.27;;;;;;;-141.97;67.39;47465.25;5034064;28;20197;-86
2023/07/06 03:19:38;;;;;;;11.00;8.47;;;;;;;-141.97;66.99;47330.72;5032250;28;20260;-86
2023/07/06 03:22:05;;;;;;;12.53;9.17;;;;;;;-141.97;66.83;47749.72;5033894;28;20170;-87
2023/07/06 03:24:30;;;;;;;12.73;8.97;;;;;;;-141.97;66.51;47484.47;5031747;28;20213;-87
2023/07/06 03:26:56;;;;;;;12.93;9.20;;;;;;;-141.97;66.00;47645.94;5033760;28;20213;-88
2023/07/06 03:29:21;;;;;;;13.40;9.00;;;;;;;-141.97;66.38;47703.59;5032219;28;20287;-88
2023/07/06 03:31:47;;;;;;;12.23;9.03;;;;;;;-141.97;66.06;47588.28;5034499;28;20208;-89
2023/07/06 03:34:12;;;;;;;14.83;9.17;;;;;;;-141.97;66.12;47701.69;5032355;28;20220;-88
2023/07/06 03:36:39;;;;;;;12.87;8.87;;;;;;;-141.97;66.18;47309.59;5033045;28;20225;-86
2023/07/06 03:39:05;;;;;;;13.30;8.90;;;;;;;-141.97;65.57;47547.91;5032655;28;20170;-86
2023/07/06 03:41:30;;;;;;;13.97;9.30;;;;;;;-141.97;65.20;47570.97;5032661;28;20552;-87
2023/07/06 03:43:58;;;;;;;12.33;9.00;;;;;;;-141.97;64.73;47428.75;5033212;28;20174;-86
2023/07/06 03:46:26;;;;;;;11.80;9.10;;;;;;;-141.97;64.63;47743.97;5033248;28;20626;-87
2023/07/06 03:48:51;;;;;;;12.37;8.70;;;;;;;-141.97;64.50;47461.41;5030013;28;20624;-86
2023/07/06 03:51:16;;;;;;;13.10;8.43;;;;;;;-141.97;64.06;47369.16;5031254;28;20269;-87
2023/07/06 03:53:46;;;;;;;13.37;8.77;;;;;;;-141.97;64.05;47422.97;5031169;28;20327;-87
2023/07/06 03:56:13;;;;;;;13.53;8.67;;;;;;;-141.97;63.67;47330.72;5027361;28;20179;-86
2023/07/06 03:58:39;;;;;;;12.30;8.70;;;;;;;-141.97;63.79;47472.94;5032969;28;20174;-86
2023/07/06 04:01:04;;;;;;;11.40;8.87;;;;;;;-141.97;63.56;47515.22;5036124;28;20236;-87
2023/07/06 04:03:32;;;;;;;11.80;8.30;;;;;;;-141.97;63.14;47553.69;5029514;28;20198;-87
2023/07/06 04:06:00;;;;;;;11.40;8.50;;;;;;;-141.97;62.87;47430.66;5033642;28;20239;-90
2023/07/06 04:08:26;;;;;;;12.77;8.10;;;;;;;-141.97;62.34;47511.38;5024703;28;21596;-90
2023/07/06 04:10:51;;;;;;;11.53;8.57;;;;;;;-141.97;62.53;47378.78;5029066;28;20655;-91
2023/07/06 04:13:17;;;;;;;10.63;8.13;;;;;;;-141.97;62.41;47546.00;5020378;28;20174;-89
2023/07/06 04:15:46;;;;;;;11.90;8.37;;;;;;;-141.97;62.09;47407.59;5012055;28;20175;-89
2023/07/06 04:18:15;;;;;;;12.07;8.13;;;;;;;-141.97;62.11;47603.66;5011677;28;20218;-90
2023/07/06 04:20:41;;;;;;;11.83;8.20;;;;;;;-141.97;62.21;47338.41;5011835;28;20564;-89
2023/07/06 04:23:09;;;;;;;12.20;8.20;;;;;;;-141.97;61.46;47465.25;5011802;28;20251;-88
2023/07/06 04:25:36;;;;;;;11.97;8.37;;;;;;;-141.97;61.43;47349.94;5014632;28;20556;-89
2023/07/06 04:28:12;;;;;;;10.40;8.00;;;;;;;-141.97;61.35;47557.53;5013506;28;20171;-88
2023/07/06 04:30:40;;;;;;;11.40;8.00;;;;;;;-141.97;60.97;47319.19;5013261;28;20561;-91
2023/07/06 04:33:09;;;;;;;11.33;8.20;;;;;;;-141.97;60.61;47513.31;5012787;28;20544;-88
2023/07/06 04:35:35;;;;;;;12.10;8.23;;;;;;;-141.97;59.71;47547.91;5013078;28;20288;-87
2023/07/06 04:38:03;;;;;;;13.27;8.30;;;;;;;-141.97;59.98;47584.44;5012421;28;20227;-86
2023/07/06 04:40:29;;;;;;;11.90;8.20;;;;;;;-141.97;60.27;47457.56;5012451;28;20596;-86
2023/07/06 04:42:55;;;;;;;15.93;8.77;;;;;;;-141.97;59.87;47499.84;5024220;28;20182;-87
2023/07/06 04:45:25;;;;;;;11.53;8.97;;;;;;;-141.97;59.08;47503.69;5036381;28;20193;-86
2023/07/06 04:48:10;;;;;;;16.87;8.57;;;;;;;-141.97;59.93;47551.75;5032698;28;20163;-86
2023/07/06 04:50:37;;;;;;;11.30;8.00;;;;;;;-141.97;59.37;47517.16;5012177;28;20252;-86
2023/07/06 04:53:03;;;;;;;16.60;8.93;;;;;;;-141.97;59.55;47522.91;5014353;28;20182;-87
2023/07/06 04:55:30;;;;;;;15.30;8.43;;;;;;;-141.97;59.20;47622.88;5011084;28;20175;-86
2023/07/06 04:57:58;;;;;;;13.13;8.63;;;;;;;-141.97;58.37;47503.69;5014801;28;20194;-87
2023/07/06 05:00:29;;;;;;;12.67;8.70;;;;;;;-141.97;57.82;47409.53;5017000;28;20631;-87
2023/07/06 05:03:09;;;;;;;18.73;8.40;;;;;;;-141.97;56.70;47488.31;5013797;28;20179;-88
2023/07/06 05:05:40;;;;;;;13.67;8.67;;;;;;;-141.97;56.42;47569.06;5012983;28;20169;-86
2023/07/06 05:08:20;;;;;;;11.97;8.03;;;;;;;-141.97;56.62;47546.00;5012127;28;20186;-86
2023/07/06 05:10:49;;;;;;;12.07;8.80;;;;;;;-141.97;57.32;47238.47;5049432;28;20212;-87
2023/07/06 05:13:18;;;;;;;10.83;7.83;;;;;;;-141.97;57.16;47522.91;5050122;28;20271;-86
2023/07/06 05:15:46;;;;;;;11.53;8.90;;;;;;;-141.97;56.42;47476.78;5051151;28;20310;-87
2023/07/06 05:18:12;;;;;;;15.30;8.93;;;;;;;-141.97;56.52;47526.75;5050516;28;20209;-87
2023/07/06 05:20:37;;;;;;;14.20;9.10;;;;;;;-141.97;55.88;47707.44;5033573;28;20310;-86
2023/07/06 05:23:06;;;;;;;12.37;8.60;;;;;;;-141.97;55.84;47561.38;5050418;28;20214;-87
2023/07/06 05:25:32;;;;;;;12.60;8.67;;;;;;;-141.97;56.54;47453.72;5034143;28;20228;-86
2023/07/06 05:27:57;;;;;;;10.03;8.50;;;;;;;-141.97;56.42;47542.16;5035262;28;20165;-89
2023/07/06 05:30:23;;;;;;;11.27;8.43;;;;;;;-141.97;55.85;47499.84;5054588;28;20194;-89
2023/07/06 05:32:49;;;;;;;12.80;8.67;;;;;;;-141.97;54.91;47321.13;5057163;28;20173;-91
2023/07/06 05:35:15;;;;;;;12.05;8.45;;;;;;;-141.97;53.93;47326.88;5039143;28;20244;-90
2023/07/06 05:37:41;;;;;;;14.27;8.50;;;;;;;-141.97;55.15;47486.41;5055746;28;20214;-91
2023/07/06 05:40:08;;;;;;;10.40;8.20;;;;;;;-141.97;54.31;47371.09;5056237;28;20237;-89
2023/07/06 05:42:33;;;;;;;11.23;7.90;;;;;;;-141.97;55.14;47488.31;5038816;28;20195;-89
2023/07/06 05:44:59;;;;;;;10.50;7.93;;;;;;;-141.97;55.99;47682.47;5034552;28;20200;-87
2023/07/06 05:47:25;;;;;;;10.20;8.45;;;;;;;-141.97;55.75;47642.09;5020056;28;20188;-88
2023/07/06 05:49:50;;;;;;;10.70;8.50;;;;;;;-141.97;54.69;47622.88;5017967;28;20229;-86
2023/07/06 05:52:15;;;;;;;10.80;7.60;;;;;;;-141.97;55.06;47323.03;5016122;28;20212;-87
2023/07/06 05:54:41;;;;;;;11.98;7.65;;;;;;;-141.97;55.44;47653.63;5016834;28;20257;-88
2023/07/06 05:57:09;;;;;;;10.63;7.90;;;;;;;-141.97;55.06;47348.03;5016707;28;20196;-88
2023/07/06 05:59:36;;;;;;;12.13;8.80;;;;;;;-141.97;54.77;47444.13;5016334;28;20174;-87
2023/07/06 06:02:04;;;;;;;18.08;9.77;;;;;;;-141.97;53.93;47472.94;5016264;28;20165;-87
2023/07/06 06:04:30;;;;;;;12.70;8.65;;;;;;;-141.97;53.32;47449.88;5015277;28;20524;-86
2023/07/06 06:06:56;;;;;;;10.93;8.50;;;;;;;-141.97;52.77;47409.53;5015556;28;20170;-85
2023/07/06 06:09:24;;;;;;;12.70;8.63;;;;;;;-141.97;52.70;47471.03;5016462;28;20245;-87
2023/07/06 06:11:50;;;;;;;12.18;8.45;;;;;;;-141.97;52.42;47357.63;5051252;28;20230;-86
2023/07/06 06:14:16;;;;;;;9.95;7.72;;;;;;;-141.97;51.17;47353.78;5034652;28;20173;-87
2023/07/06 06:16:42;;;;;;;10.40;8.25;;;;;;;-141.97;52.47;47471.03;5034135;28;20251;-87
2023/07/06 06:19:08;;;;;;;10.52;8.20;;;;;;;-141.97;51.56;47676.69;5034630;28;20183;-87
2023/07/06 06:21:34;;;;;;;12.10;8.60;;;;;;;-141.97;51.36;47440.28;5036380;28;20189;-87
2023/07/06 06:24:01;;;;;;;11.88;9.07;;;;;;;-141.97;51.01;47421.06;5036127;28;20180;-87
2023/07/06 06:26:27;;;;;;;10.93;8.00;;;;;;;-141.97;50.14;47419.13;5034363;28;20173;-87
2023/07/06 06:28:53;;;;;;;15.23;8.73;;;;;;;-141.97;49.77;47515.22;5034170;28;20172;-87
2023/07/06 06:31:19;;;;;;;10.07;8.07;;;;;;;-141.97;48.89;47440.28;5032674;28;20651;-85
2023/07/06 06:33:45;;;;;;;10.80;8.23;;;;;;;-141.97;49.08;47365.31;5034230;28;20603;-86
2023/07/06 06:36:14;;;;;;;11.45;8.07;;;;;;;-141.97;48.27;47407.59;5045726;28;20232;-87
2023/07/06 06:38:41;;;;;;;11.45;8.32;;;;;;;-141.97;48.38;47447.97;5053824;28;20213;-86
2023/07/06 06:41:07;;;;;;;10.65;7.97;;;;;;;-141.97;48.02;47465.25;5037491;28;20172;-86
2023/07/06 06:43:36;;;;;;;10.38;7.70;;;;;;;-141.97;47.99;47411.44;5034049;28;20263;-84
2023/07/06 06:46:02;;;;;;;11.40;7.78;;;;;;;-141.97;47.60;47398.00;5033858;28;20500;-86
2023/07/06 06:48:28;;;;;;;8.80;7.90;;;;;;;-141.97;47.28;47447.97;5028594;28;20244;-86
2023/07/06 06:50:55;;;;;;;10.43;8.57;;;;;;;-141.97;47.40;47392.22;5025585;28;20171;-86
2023/07/06 06:53:31;;;;;;;10.40;8.23;;;;;;;-141.97;46.52;47276.91;5035197;28;20932;-86
2023/07/06 06:55:57;;;;;;;10.73;7.95;;;;;;;-141.97;45.84;47422.97;5035688;28;20187;-84
2023/07/06 06:58:29;;;;;;;10.75;7.93;;;;;;;-141.97;45.77;47207.72;5048528;28;20220;-88
2023/07/06 07:00:58;;;;;;;10.98;7.55;;;;;;;-141.97;45.47;47303.81;5034199;28;20563;-87
2023/07/06 07:03:27;;;;;;;10.35;8.05;;;;;;;-141.97;45.63;47417.22;5036316;28;20253;-88
2023/07/06 07:06:11;;;;;;;9.88;8.27;;;;;;;-141.97;46.24;47432.59;5035847;28;20185;-87
2023/07/06 07:08:38;;;;;;;12.52;8.80;;;;;;;-141.97;45.63;47392.22;5048403;28;20168;-86
2023/07/06 07:11:04;;;;;;;13.40;8.20;;;;;;;-141.97;44.71;47588.28;5057790;28;20237;-87
2023/07/06 07:13:30;;;;;;;8.93;7.28;;;;;;;-141.97;43.12;47411.44;5040887;28;20177;-88
2023/07/06 07:15:55;;;;;;;8.63;7.53;;;;;;;-141.97;42.61;47319.19;5034028;28;20156;-87
2023/07/06 07:18:22;;;;;;;10.10;7.28;;;;;;;-141.97;41.48;47346.09;5032953;28;20189;-88
2023/07/06 07:20:51;;;;;;;11.85;7.45;;;;;;;-141.97;42.18;47384.53;5032080;28;20724;-88
2023/07/06 07:23:21;;;;;;;9.10;6.95;;;;;;;-141.97;40.40;47469.09;5033398;28;20162;-87
2023/07/06 07:25:48;;;;;;;10.82;8.05;;;;;;;-141.97;41.31;47488.31;5034130;28;20706;-88
2023/07/06 07:28:16;;;;;;;11.10;7.90;;;;;;;-141.97;41.96;47061.66;5033429;28;20180;-87
2023/07/06 07:30:43;;;;;;;9.02;7.03;;;;;;;-141.97;39.06;47340.34;5033818;28;20664;-87
2023/07/06 07:33:08;;;;;;;8.60;7.20;;;;;;;-141.97;39.71;47409.53;5034067;28;20162;-88
2023/07/06 07:35:36;;;;;;;9.32;7.85;;;;;;;-141.97;40.65;47396.06;5033078;28;20216;-87
2023/07/06 07:38:02;;;;;;;9.48;7.57;;;;;;;-141.97;40.89;47236.56;5032146;28;20208;-87
2023/07/06 07:40:28;;;;;;;10.93;8.05;;;;;;;-141.97;40.61;47426.81;5033191;28;20240;-87
2023/07/06 07:42:53;;;;;;;10.35;7.65;;;;;;;-141.97;40.63;47255.78;5033567;28;20200;-87
2023/07/06 07:45:19;;;;;;;8.85;7.95;;;;;;;-141.97;40.95;47336.50;5033517;28;20191;-88
2023/07/06 07:47:44;;;;;;;13.88;8.63;;;;;;;-141.97;41.23;47421.06;5031975;28;20228;-88
2023/07/06 07:50:10;;;;;;;8.77;7.88;;;;;;;-141.97;42.21;47384.53;5033189;28;20185;-87
2023/07/06 07:52:35;;;;;;;10.43;8.20;;;;;;;-141.97;41.41;47378.78;5031820;28;20177;-87
2023/07/06 07:55:00;;;;;;;10.63;8.30;;;;;;;-141.97;40.36;47378.78;5031529;28;20192;-88
2023/07/06 07:57:30;;;;;;;10.05;8.07;;;;;;;-141.97;40.10;47359.56;5034046;28;20272;-87
2023/07/06 07:59:56;;;;;;;10.85;8.10;;;;;;;-141.97;39.48;47313.44;5012926;28;20166;-87
2023/07/06 08:02:21;;;;;;;10.50;8.30;;;;;;;-141.97;39.40;47353.78;5025771;28;20186;-88
2023/07/06 08:04:48;;;;;;;14.68;7.95;;;;;;;-141.97;39.13;47363.41;5032560;28;20245;-88
2023/07/06 08:07:14;;;;;;;8.95;8.05;;;;;;;-141.97;38.78;47290.38;5032411;28;20545;-87
2023/07/06 08:09:40;;;;;;;10.52;7.97;;;;;;;-141.97;38.42;47301.91;5022962;28;20234;-88
2023/07/06 08:12:06;;;;;;;10.43;7.97;;;;;;;-141.97;38.23;47171.22;5023971;28;20689;-88
2023/07/06 08:14:38;;;;;;;10.23;7.90;;;;;;;-141.97;38.00;47488.31;5013223;28;20201;-88
2023/07/06 08:17:04;;;;;;;11.07;7.80;;;;;;;-141.97;38.26;47188.50;5012905;28;20202;-88
2023/07/06 08:19:32;;;;;;;9.60;7.53;;;;;;;-141.97;38.31;47299.97;5011006;28;20177;-88
2023/07/06 08:21:59;;;;;;;12.80;8.15;;;;;;;-141.97;38.49;47363.41;5021973;28;20169;-88
2023/07/06 08:24:25;;;;;;;12.38;8.00;;;;;;;-141.97;38.82;47301.91;5031214;28;20162;-88
2023/07/06 08:26:50;;;;;;;9.27;7.75;;;;;;;-141.97;37.63;47326.88;5032416;28;20158;-88
2023/07/06 08:29:17;;;;;;;10.10;7.63;;;;;;;-141.97;37.84;47613.25;5031383;28;20634;-88
2023/07/06 08:31:43;;;;;;;12.02;8.30;;;;;;;-141.97;37.03;47296.13;5024761;28;20248;-87
2023/07/06 08:34:09;;;;;;;10.77;8.43;;;;;;;-141.97;37.22;47324.97;5011977;28;20174;-88
2023/07/06 08:36:34;;;;;;;13.20;8.55;;;;;;;-141.97;37.64;47315.34;5012482;28;20219;-88
2023/07/06 08:39:00;;;;;;;26.00;18.92;;;;;;;-141.97;37.42;47353.78;5011369;28;20273;-86
2023/07/06 08:41:30;;;;;;;14.85;11.23;;;;;;;-141.97;37.82;47363.41;5019563;28;20182;-88
2023/07/06 08:43:59;;;;;;;15.70;9.68;;;;;;;-141.97;37.86;47353.78;5034874;28;20616;-88
2023/07/06 08:46:30;;;;;;;9.65;8.27;;;;;;;-141.97;37.62;47253.84;5033546;28;20169;-88
2023/07/06 08:48:55;;;;;;;11.00;7.97;;;;;;;-141.97;38.00;47228.88;5032092;28;20261;-89
2023/07/06 08:51:26;;;;;;;10.60;8.15;;;;;;;-141.97;37.38;47484.47;5025904;28;20620;-89
2023/07/06 08:53:56;;;;;;;10.40;8.23;;;;;;;-141.97;36.79;47569.06;5012827;28;20170;-89
2023/07/06 08:56:25;;;;;;;12.38;8.93;;;;;;;-141.97;37.73;47546.00;5014565;28;20542;-92
2023/07/06 08:58:52;;;;;;;10.35;8.18;;;;;;;-141.97;37.43;47346.09;5011945;28;20183;-91
2023/07/06 09:01:22;;;;;;;15.55;8.32;;;;;;;-141.97;37.24;47330.72;5011585;28;20175;-90
2023/07/06 09:03:50;;;;;;;14.75;8.57;;;;;;;-141.97;36.61;47342.25;5016168;28;20159;-89
2023/07/06 09:06:26;;;;;;;11.43;8.43;;;;;;;-141.97;36.79;47305.75;5026932;28;20257;-88
2023/07/06 09:08:55;;;;;;;11.27;8.43;;;;;;;-141.97;36.77;47119.31;5015322;28;20232;-86
2023/07/06 09:11:23;;;;;;;12.43;8.35;;;;;;;-141.97;36.79;47328.81;5037294;28;20199;-84
2023/07/06 09:13:51;;;;;;;11.27;8.52;;;;;;;-141.97;36.41;47338.41;5038259;28;20162;-87
2023/07/06 09:16:19;;;;;;;10.85;8.18;;;;;;;-141.97;36.21;47144.31;5038315;28;20166;-88
2023/07/06 09:18:46;;;;;;;10.52;8.20;;;;;;;-141.97;36.64;47113.56;5035633;28;20547;-88
2023/07/06 09:21:12;;;;;;;11.95;8.50;;;;;;;-141.97;36.96;47332.66;5035379;28;20181;-88
2023/07/06 09:23:37;;;;;;;10.65;8.23;;;;;;;-141.97;37.04;47192.34;5036029;28;20257;-89
2023/07/06 09:26:07;;;;;;;9.00;8.07;;;;;;;-141.97;36.96;47346.09;5035063;28;20554;-87
2023/07/06 09:28:33;;;;;;;12.68;8.15;;;;;;;-141.97;37.38;47286.53;5034792;28;20735;-85
2023/07/06 09:31:07;;;;;;;10.60;8.07;;;;;;;-141.97;36.75;47342.25;5045800;28;20174;-83
2023/07/06 09:33:32;;;;;;;10.07;7.47;;;;;;;-141.97;35.14;47301.91;5059205;28;20162;-88
2023/07/06 09:35:58;;;;;;;10.20;7.68;;;;;;;-141.97;34.97;47457.56;5055761;28;20268;-87
2023/07/06 09:38:25;;;;;;;7.97;7.18;;;;;;;-141.97;34.90;47271.16;5036995;28;20229;-87
2023/07/06 09:40:52;;;;;;;10.20;7.18;;;;;;;-141.97;35.17;47336.50;5035678;28;20169;-87
2023/07/06 09:43:20;;;;;;;8.30;7.28;;;;;;;-141.97;35.17;47276.91;5033253;28;20668;-87
2023/07/06 09:45:48;;;;;;;11.32;7.28;;;;;;;-141.97;34.43;47338.41;5034583;28;20273;-87
2023/07/06 09:48:37;;;;;;;8.80;7.72;;;;;;;-141.97;36.06;47365.31;5034626;28;20208;-88
2023/07/06 09:51:11;;;;;;;8.95;7.35;;;;;;;-141.97;35.67;47334.56;5034738;28;20174;-87
2023/07/06 09:53:59;;;;;;;8.30;6.90;;;;;;;-141.97;35.29;47340.34;5037048;28;20159;-88
2023/07/06 09:56:25;;;;;;;7.75;6.95;;;;;;;-141.97;35.05;47319.19;5034194;28;20170;-87
2023/07/06 09:58:52;;;;;;;8.73;7.70;;;;;;;-141.97;35.11;47447.97;5034043;28;20535;-87
2023/07/06 10:01:27;;;;;;;7.50;6.80;;;;;;;-141.97;33.88;47319.19;5035010;28;20162;-86
2023/07/06 10:03:55;;;;;;;9.07;6.88;;;;;;;-141.97;33.93;47315.34;5032617;28;20498;-86
2023/07/06 10:06:49;;;;;;;7.28;6.57;;;;;;;-141.97;33.41;47328.81;5035038;28;20189;-87
2023/07/06 10:09:20;;;;;;;8.00;7.20;;;;;;;-141.97;33.79;47298.06;5043060;28;20271;-87
2023/07/06 10:11:49;;;;;;;10.30;7.15;;;;;;;-141.97;33.58;47307.66;5036333;28;20184;-86
2023/07/06 10:14:25;;;;;;;8.45;6.82;;;;;;;-141.97;33.39;47201.97;5053909;28;20238;-86
2023/07/06 10:17:13;;;;;;;10.27;6.93;;;;;;;-141.97;33.44;47292.28;5051017;28;20258;-86
2023/07/06 10:19:49;;;;;;;7.80;6.68;;;;;;;-141.97;32.37;47282.69;5069479;28;20686;-87
2023/07/06 10:22:44;;;;;;;7.30;6.55;;;;;;;-141.97;32.81;47290.38;5039292;28;20177;-86
2023/07/06 10:25:18;;;;;;;7.65;6.70;;;;;;;-141.97;33.40;47332.66;5031052;28;20822;-86
2023/07/06 10:27:49;;;;;;;11.07;7.10;;;;;;;-141.97;33.63;47273.06;5032031;28;20189;-87
2023/07/06 10:30:45;;;;;;;11.05;7.28;;;;;;;-141.97;33.29;47305.75;5033408;28;21069;-87
2023/07/06 10:33:52;;;;;;;10.13;6.90;;;;;;;-141.97;32.91;47313.44;4993079;28;20209;-86
2023/07/06 10:36:18;;;;;;;8.32;6.45;;;;;;;-141.97;32.83;47307.66;4975492;28;20562;-85
2023/07/06 10:38:48;;;;;;;7.50;6.70;;;;;;;-141.97;33.16;47299.97;4973316;28;20224;-86
2023/07/06 10:41:14;;;;;;;11.27;6.85;;;;;;;-141.97;33.42;47309.59;4974291;28;20219;-87
2023/07/06 10:43:42;;;;;;;8.00;6.88;;;;;;;-141.97;33.60;47319.19;4954443;28;20222;-87
2023/07/06 10:46:30;;;;;;;8.23;7.18;;;;;;;-141.97;33.51;47305.75;4936493;29;20198;-87
2023/07/06 10:48:57;;;;;;;8.43;7.20;;;;;;;-141.97;33.73;47296.13;4910201;29;20187;-88
2023/07/06 10:51:25;;;;;;;8.10;6.93;;;;;;;-141.97;33.26;47188.50;4924761;29;20197;-89
2023/07/06 10:54:23;;;;;;;9.93;7.32;;;;;;;-141.97;33.99;47488.31;4933230;29;20264;-86
2023/07/06 10:57:01;;;;;;;9.15;6.80;;;;;;;-141.97;32.88;47453.72;4943962;29;20787;-87
2023/07/06 11:00:13;;;;;;;9.95;7.20;;;;;;;-141.97;33.39;47328.81;4940810;29;20228;-87
2023/07/06 11:02:40;;;;;;;9.38;7.07;;;;;;;-141.97;34.06;47338.41;4941540;29;20193;-86
2023/07/06 11:05:30;;;;;;;8.02;7.22;;;;;;;-141.97;33.62;47286.53;4939583;29;20162;-86
2023/07/06 11:08:02;;;;;;;8.82;7.65;;;;;;;-141.97;34.50;47271.16;4941166;29;20166;-88
2023/07/06 11:10:31;;;;;;;8.35;7.00;;;;;;;-141.97;34.13;47340.34;4932930;29;20229;-87
2023/07/06 11:13:04;;;;;;;8.60;6.97;;;;;;;-141.97;33.71;47309.59;4947695;28;20195;-87
2023/07/06 11:15:56;;;;;;;7.60;6.85;;;;;;;-141.97;33.34;47299.97;4993062;28;20238;-87
2023/07/06 11:18:21;;;;;;;8.00;7.20;;;;;;;-141.97;33.06;47298.06;4993887;28;20219;-88
2023/07/06 11:21:05;;;;;;;8.90;6.90;;;;;;;-141.97;32.94;47319.19;4992627;28;20222;-88